sensor_id;sensor_type;location;lat;lon;timestamp;P1;durP1;ratioP1;P2;durP2;ratioP2
54197;SDS011;40105;52.366;17.000;2023-02-28T00:00:00;42.83;;;16.33;;
54197;SDS011;40105;52.366;17.000;2023-02-28T00:02:25;49.77;;;15.77;;
54197;SDS011;40105;52.366;17.000;2023-02-28T00:04:51;42.80;;;15.77;;
54197;SDS011;40105;52.366;17.000;2023-02-28T00:07:25;55.95;;;17.45;;
54197;SDS011;40105;52.366;17.000;2023-02-28T00:09:51;58.33;;;16.63;;
54197;SDS011;40105;52.366;17.000;2023-02-28T00:12:16;44.87;;;16.17;;
54197;SDS011;40105;52.366;17.000;2023-02-28T00:14:41;55.37;;;16.07;;
54197;SDS011;40105;52.366;17.000;2023-02-28T00:17:06;50.83;;;15.43;;
54197;SDS011;40105;52.366;17.000;2023-02-28T00:19:31;54.93;;;16.30;;
54197;SDS011;40105;52.366;17.000;2023-02-28T00:21:56;55.67;;;16.27;;
54197;SDS011;40105;52.366;17.000;2023-02-28T00:24:21;40.60;;;14.83;;
54197;SDS011;40105;52.366;17.000;2023-02-28T00:26:47;37.77;;;14.43;;
54197;SDS011;40105;52.366;17.000;2023-02-28T00:29:12;45.10;;;15.60;;
54197;SDS011;40105;52.366;17.000;2023-02-28T00:31:37;41.60;;;14.50;;
54197;SDS011;40105;52.366;17.000;2023-02-28T00:34:02;49.47;;;16.70;;
54197;SDS011;40105;52.366;17.000;2023-02-28T00:36:27;47.17;;;17.67;;
54197;SDS011;40105;52.366;17.000;2023-02-28T00:38:52;52.97;;;16.27;;
54197;SDS011;40105;52.366;17.000;2023-02-28T00:41:17;48.70;;;15.60;;
54197;SDS011;40105;52.366;17.000;2023-02-28T00:43:43;50.87;;;15.80;;
54197;SDS011;40105;52.366;17.000;2023-02-28T00:46:08;39.27;;;15.77;;
54197;SDS011;40105;52.366;17.000;2023-02-28T00:48:46;37.85;;;14.73;;
54197;SDS011;40105;52.366;17.000;2023-02-28T00:51:11;55.47;;;18.17;;
54197;SDS011;40105;52.366;17.000;2023-02-28T00:53:36;54.83;;;17.00;;
54197;SDS011;40105;52.366;17.000;2023-02-28T00:56:02;38.13;;;14.70;;
54197;SDS011;40105;52.366;17.000;2023-02-28T00:58:27;50.22;;;16.77;;
54197;SDS011;40105;52.366;17.000;2023-02-28T01:00:53;45.92;;;15.48;;
54197;SDS011;40105;52.366;17.000;2023-02-28T01:03:19;60.35;;;15.88;;
54197;SDS011;40105;52.366;17.000;2023-02-28T01:05:44;59.05;;;17.52;;
54197;SDS011;40105;52.366;17.000;2023-02-28T01:08:10;66.57;;;18.50;;
54197;SDS011;40105;52.366;17.000;2023-02-28T01:10:35;50.63;;;15.80;;
54197;SDS011;40105;52.366;17.000;2023-02-28T01:13:01;47.13;;;16.15;;
54197;SDS011;40105;52.366;17.000;2023-02-28T01:15:27;55.22;;;16.83;;
54197;SDS011;40105;52.366;17.000;2023-02-28T01:17:52;50.73;;;16.23;;
54197;SDS011;40105;52.366;17.000;2023-02-28T01:20:17;67.77;;;18.97;;
54197;SDS011;40105;52.366;17.000;2023-02-28T01:22:42;56.33;;;18.10;;
54197;SDS011;40105;52.366;17.000;2023-02-28T01:25:07;61.00;;;19.20;;
54197;SDS011;40105;52.366;17.000;2023-02-28T01:27:33;54.67;;;17.02;;
54197;SDS011;40105;52.366;17.000;2023-02-28T01:29:58;60.97;;;19.83;;
54197;SDS011;40105;52.366;17.000;2023-02-28T01:32:23;71.05;;;18.67;;
54197;SDS011;40105;52.366;17.000;2023-02-28T01:34:48;63.30;;;15.47;;
54197;SDS011;40105;52.366;17.000;2023-02-28T01:37:13;44.25;;;14.88;;
54197;SDS011;40105;52.366;17.000;2023-02-28T01:39:39;45.97;;;16.97;;
54197;SDS011;40105;52.366;17.000;2023-02-28T01:42:04;50.37;;;15.53;;
54197;SDS011;40105;52.366;17.000;2023-02-28T01:47:13;50.88;;;17.27;;
54197;SDS011;40105;52.366;17.000;2023-02-28T01:49:38;45.30;;;14.50;;
54197;SDS011;40105;52.366;17.000;2023-02-28T01:52:04;62.40;;;15.95;;
54197;SDS011;40105;52.366;17.000;2023-02-28T01:54:30;58.40;;;16.75;;
54197;SDS011;40105;52.366;17.000;2023-02-28T01:57:01;38.65;;;14.90;;
54197;SDS011;40105;52.366;17.000;2023-02-28T01:59:38;37.28;;;12.60;;
54197;SDS011;40105;52.366;17.000;2023-02-28T02:02:10;47.05;;;15.40;;
54197;SDS011;40105;52.366;17.000;2023-02-28T02:04:37;43.60;;;17.10;;
54197;SDS011;40105;52.366;17.000;2023-02-28T02:07:02;46.70;;;14.88;;
54197;SDS011;40105;52.366;17.000;2023-02-28T02:09:28;39.03;;;13.73;;
54197;SDS011;40105;52.366;17.000;2023-02-28T02:11:53;38.50;;;14.07;;
54197;SDS011;40105;52.366;17.000;2023-02-28T02:14:41;51.75;;;12.85;;
54197;SDS011;40105;52.366;17.000;2023-02-28T02:20:09;44.67;;;12.77;;
54197;SDS011;40105;52.366;17.000;2023-02-28T02:27:48;35.03;;;13.93;;
54197;SDS011;40105;52.366;17.000;2023-02-28T02:35:56;44.42;;;13.25;;
54197;SDS011;40105;52.366;17.000;2023-02-28T02:46:15;38.00;;;14.15;;
54197;SDS011;40105;52.366;17.000;2023-02-28T02:48:41;45.83;;;14.13;;
54197;SDS011;40105;52.366;17.000;2023-02-28T02:51:10;38.78;;;13.90;;
54197;SDS011;40105;52.366;17.000;2023-02-28T02:53:40;35.35;;;13.98;;
54197;SDS011;40105;52.366;17.000;2023-02-28T02:56:06;33.90;;;14.25;;
54197;SDS011;40105;52.366;17.000;2023-02-28T02:58:33;34.63;;;12.60;;
54197;SDS011;40105;52.366;17.000;2023-02-28T03:01:00;52.80;;;13.40;;
54197;SDS011;40105;52.366;17.000;2023-02-28T03:03:26;37.70;;;13.68;;
54197;SDS011;40105;52.366;17.000;2023-02-28T03:05:57;57.38;;;15.52;;
54197;SDS011;40105;52.366;17.000;2023-02-28T03:08:22;44.72;;;14.10;;
54197;SDS011;40105;52.366;17.000;2023-02-28T03:10:51;40.17;;;15.10;;
54197;SDS011;40105;52.366;17.000;2023-02-28T03:13:25;49.00;;;14.35;;
54197;SDS011;40105;52.366;17.000;2023-02-28T03:21:12;35.58;;;13.38;;
54197;SDS011;40105;52.366;17.000;2023-02-28T03:23:53;31.83;;;11.90;;
54197;SDS011;40105;52.366;17.000;2023-02-28T03:26:21;31.20;;;11.85;;
54197;SDS011;40105;52.366;17.000;2023-02-28T03:34:04;35.42;;;12.35;;
54197;SDS011;40105;52.366;17.000;2023-02-28T03:36:36;31.58;;;12.05;;
54197;SDS011;40105;52.366;17.000;2023-02-28T03:39:08;34.50;;;12.23;;
54197;SDS011;40105;52.366;17.000;2023-02-28T03:41:36;35.05;;;13.65;;
54197;SDS011;40105;52.366;17.000;2023-02-28T03:44:05;41.67;;;13.65;;
54197;SDS011;40105;52.366;17.000;2023-02-28T03:46:33;32.15;;;12.27;;
54197;SDS011;40105;52.366;17.000;2023-02-28T03:49:02;43.75;;;13.43;;
54197;SDS011;40105;52.366;17.000;2023-02-28T03:51:28;45.10;;;14.30;;
54197;SDS011;40105;52.366;17.000;2023-02-28T03:53:55;32.65;;;13.15;;
54197;SDS011;40105;52.366;17.000;2023-02-28T03:56:27;33.90;;;11.43;;
54197;SDS011;40105;52.366;17.000;2023-02-28T04:01:28;45.33;;;12.00;;
54197;SDS011;40105;52.366;17.000;2023-02-28T04:03:56;40.55;;;12.70;;
54197;SDS011;40105;52.366;17.000;2023-02-28T04:06:22;38.80;;;13.97;;
54197;SDS011;40105;52.366;17.000;2023-02-28T04:08:47;41.35;;;13.60;;
54197;SDS011;40105;52.366;17.000;2023-02-28T04:11:18;44.88;;;12.60;;
54197;SDS011;40105;52.366;17.000;2023-02-28T04:13:44;39.38;;;11.15;;
54197;SDS011;40105;52.366;17.000;2023-02-28T04:16:10;32.53;;;11.97;;
54197;SDS011;40105;52.366;17.000;2023-02-28T04:18:37;42.13;;;11.00;;
54197;SDS011;40105;52.366;17.000;2023-02-28T04:21:02;41.92;;;12.60;;
54197;SDS011;40105;52.366;17.000;2023-02-28T04:23:27;40.08;;;14.07;;
54197;SDS011;40105;52.366;17.000;2023-02-28T04:25:54;47.78;;;12.90;;
54197;SDS011;40105;52.366;17.000;2023-02-28T04:28:19;34.75;;;11.07;;
54197;SDS011;40105;52.366;17.000;2023-02-28T04:30:44;41.00;;;11.33;;
54197;SDS011;40105;52.366;17.000;2023-02-28T04:33:09;41.83;;;11.57;;
54197;SDS011;40105;52.366;17.000;2023-02-28T04:35:35;25.93;;;11.67;;
54197;SDS011;40105;52.366;17.000;2023-02-28T04:38:00;39.77;;;13.17;;
54197;SDS011;40105;52.366;17.000;2023-02-28T04:40:25;39.90;;;12.25;;
54197;SDS011;40105;52.366;17.000;2023-02-28T04:42:50;36.97;;;13.93;;
54197;SDS011;40105;52.366;17.000;2023-02-28T04:45:15;37.90;;;14.98;;
54197;SDS011;40105;52.366;17.000;2023-02-28T04:47:42;33.50;;;13.20;;
54197;SDS011;40105;52.366;17.000;2023-02-28T04:50:07;52.33;;;15.10;;
54197;SDS011;40105;52.366;17.000;2023-02-28T04:52:32;30.52;;;11.85;;
54197;SDS011;40105;52.366;17.000;2023-02-28T04:54:58;24.53;;;12.93;;
54197;SDS011;40105;52.366;17.000;2023-02-28T04:57:23;45.33;;;14.00;;
54197;SDS011;40105;52.366;17.000;2023-02-28T04:59:48;54.80;;;11.40;;
54197;SDS011;40105;52.366;17.000;2023-02-28T05:02:13;38.97;;;11.80;;
54197;SDS011;40105;52.366;17.000;2023-02-28T05:04:38;40.43;;;12.80;;
54197;SDS011;40105;52.366;17.000;2023-02-28T05:07:04;31.97;;;10.23;;
54197;SDS011;40105;52.366;17.000;2023-02-28T05:09:29;41.17;;;11.97;;
54197;SDS011;40105;52.366;17.000;2023-02-28T05:11:54;44.37;;;11.67;;
54197;SDS011;40105;52.366;17.000;2023-02-28T05:14:19;29.00;;;10.23;;
54197;SDS011;40105;52.366;17.000;2023-02-28T05:16:44;37.27;;;10.27;;
54197;SDS011;40105;52.366;17.000;2023-02-28T05:19:10;34.37;;;10.87;;
54197;SDS011;40105;52.366;17.000;2023-02-28T05:21:36;19.83;;;8.23;;
54197;SDS011;40105;52.366;17.000;2023-02-28T05:24:05;35.10;;;8.88;;
54197;SDS011;40105;52.366;17.000;2023-02-28T05:26:30;37.38;;;12.85;;
54197;SDS011;40105;52.366;17.000;2023-02-28T05:28:56;28.40;;;11.52;;
54197;SDS011;40105;52.366;17.000;2023-02-28T05:31:21;25.27;;;10.30;;
54197;SDS011;40105;52.366;17.000;2023-02-28T05:33:47;22.48;;;10.50;;
54197;SDS011;40105;52.366;17.000;2023-02-28T05:36:12;30.03;;;11.13;;
54197;SDS011;40105;52.366;17.000;2023-02-28T05:38:37;29.90;;;11.27;;
54197;SDS011;40105;52.366;17.000;2023-02-28T05:41:08;36.20;;;12.30;;
54197;SDS011;40105;52.366;17.000;2023-02-28T05:43:34;30.20;;;8.73;;
54197;SDS011;40105;52.366;17.000;2023-02-28T05:46:02;17.88;;;8.48;;
54197;SDS011;40105;52.366;17.000;2023-02-28T05:48:27;30.02;;;9.05;;
54197;SDS011;40105;52.366;17.000;2023-02-28T05:50:52;23.52;;;8.57;;
54197;SDS011;40105;52.366;17.000;2023-02-28T05:53:17;28.10;;;10.57;;
54197;SDS011;40105;52.366;17.000;2023-02-28T05:55:42;32.07;;;10.63;;
54197;SDS011;40105;52.366;17.000;2023-02-28T05:58:07;33.70;;;10.65;;
54197;SDS011;40105;52.366;17.000;2023-02-28T06:00:33;21.20;;;9.37;;
54197;SDS011;40105;52.366;17.000;2023-02-28T06:02:58;29.97;;;11.33;;
54197;SDS011;40105;52.366;17.000;2023-02-28T06:05:26;40.55;;;10.73;;
54197;SDS011;40105;52.366;17.000;2023-02-28T06:07:51;40.60;;;11.48;;
54197;SDS011;40105;52.366;17.000;2023-02-28T06:10:16;47.47;;;14.53;;
54197;SDS011;40105;52.366;17.000;2023-02-28T06:12:42;37.15;;;11.80;;
54197;SDS011;40105;52.366;17.000;2023-02-28T06:15:09;41.77;;;13.93;;
54197;SDS011;40105;52.366;17.000;2023-02-28T06:17:36;58.55;;;20.33;;
54197;SDS011;40105;52.366;17.000;2023-02-28T06:20:01;50.25;;;19.30;;
54197;SDS011;40105;52.366;17.000;2023-02-28T06:22:27;51.95;;;16.55;;
54197;SDS011;40105;52.366;17.000;2023-02-28T06:24:52;36.40;;;14.83;;
54197;SDS011;40105;52.366;17.000;2023-02-28T06:27:17;36.27;;;16.07;;
54197;SDS011;40105;52.366;17.000;2023-02-28T06:29:44;44.80;;;12.65;;
54197;SDS011;40105;52.366;17.000;2023-02-28T06:32:09;41.10;;;13.57;;
54197;SDS011;40105;52.366;17.000;2023-02-28T06:34:34;43.58;;;14.20;;
54197;SDS011;40105;52.366;17.000;2023-02-28T06:37:00;36.67;;;13.82;;
54197;SDS011;40105;52.366;17.000;2023-02-28T06:39:27;34.08;;;12.55;;
54197;SDS011;40105;52.366;17.000;2023-02-28T06:41:52;36.05;;;14.15;;
54197;SDS011;40105;52.366;17.000;2023-02-28T06:44:17;52.47;;;16.90;;
54197;SDS011;40105;52.366;17.000;2023-02-28T06:46:43;42.17;;;15.27;;
54197;SDS011;40105;52.366;17.000;2023-02-28T06:49:09;43.80;;;15.48;;
54197;SDS011;40105;52.366;17.000;2023-02-28T06:51:35;38.85;;;15.07;;
54197;SDS011;40105;52.366;17.000;2023-02-28T06:54:00;42.58;;;15.80;;
54197;SDS011;40105;52.366;17.000;2023-02-28T06:56:26;42.45;;;17.15;;
54197;SDS011;40105;52.366;17.000;2023-02-28T06:58:51;48.13;;;18.40;;
54197;SDS011;40105;52.366;17.000;2023-02-28T07:01:17;56.63;;;20.63;;
54197;SDS011;40105;52.366;17.000;2023-02-28T07:03:43;71.15;;;22.13;;
54197;SDS011;40105;52.366;17.000;2023-02-28T07:06:09;63.40;;;19.02;;
54197;SDS011;40105;52.366;17.000;2023-02-28T07:08:34;63.67;;;21.07;;
54197;SDS011;40105;52.366;17.000;2023-02-28T07:11:00;64.22;;;22.52;;
54197;SDS011;40105;52.366;17.000;2023-02-28T07:13:26;64.50;;;21.83;;
54197;SDS011;40105;52.366;17.000;2023-02-28T07:15:58;64.80;;;22.43;;
54197;SDS011;40105;52.366;17.000;2023-02-28T07:18:23;47.80;;;19.67;;
54197;SDS011;40105;52.366;17.000;2023-02-28T07:20:49;69.40;;;21.57;;
54197;SDS011;40105;52.366;17.000;2023-02-28T07:23:14;63.00;;;20.45;;
54197;SDS011;40105;52.366;17.000;2023-02-28T07:25:39;67.57;;;20.97;;
54197;SDS011;40105;52.366;17.000;2023-02-28T07:28:04;49.17;;;17.63;;
54197;SDS011;40105;52.366;17.000;2023-02-28T07:30:29;55.87;;;18.27;;
54197;SDS011;40105;52.366;17.000;2023-02-28T07:32:55;47.07;;;17.57;;
54197;SDS011;40105;52.366;17.000;2023-02-28T07:35:21;42.38;;;18.08;;
54197;SDS011;40105;52.366;17.000;2023-02-28T07:37:46;42.80;;;14.48;;
54197;SDS011;40105;52.366;17.000;2023-02-28T07:40:12;46.75;;;16.52;;
54197;SDS011;40105;52.366;17.000;2023-02-28T07:42:37;40.78;;;15.18;;
54197;SDS011;40105;52.366;17.000;2023-02-28T07:45:03;46.90;;;16.83;;
54197;SDS011;40105;52.366;17.000;2023-02-28T07:47:29;36.47;;;14.45;;
54197;SDS011;40105;52.366;17.000;2023-02-28T07:49:55;48.35;;;16.83;;
54197;SDS011;40105;52.366;17.000;2023-02-28T07:52:20;34.97;;;13.83;;
54197;SDS011;40105;52.366;17.000;2023-02-28T07:54:45;30.53;;;14.03;;
54197;SDS011;40105;52.366;17.000;2023-02-28T07:57:10;36.30;;;12.90;;
54197;SDS011;40105;52.366;17.000;2023-02-28T07:59:35;38.47;;;13.83;;
54197;SDS011;40105;52.366;17.000;2023-02-28T08:02:00;30.83;;;12.80;;
54197;SDS011;40105;52.366;17.000;2023-02-28T08:04:26;63.58;;;16.15;;
54197;SDS011;40105;52.366;17.000;2023-02-28T08:06:51;39.13;;;13.03;;
54197;SDS011;40105;52.366;17.000;2023-02-28T08:09:21;32.47;;;14.80;;
54197;SDS011;40105;52.366;17.000;2023-02-28T08:11:46;35.60;;;13.47;;
54197;SDS011;40105;52.366;17.000;2023-02-28T08:14:11;47.90;;;13.47;;
54197;SDS011;40105;52.366;17.000;2023-02-28T08:16:36;35.50;;;14.67;;
54197;SDS011;40105;52.366;17.000;2023-02-28T08:19:02;34.53;;;13.90;;
54197;SDS011;40105;52.366;17.000;2023-02-28T08:21:27;32.90;;;12.53;;
54197;SDS011;40105;52.366;17.000;2023-02-28T08:23:52;30.53;;;14.10;;
54197;SDS011;40105;52.366;17.000;2023-02-28T08:26:17;40.83;;;13.60;;
54197;SDS011;40105;52.366;17.000;2023-02-28T08:28:43;41.22;;;15.48;;
54197;SDS011;40105;52.366;17.000;2023-02-28T08:31:10;38.03;;;14.80;;
54197;SDS011;40105;52.366;17.000;2023-02-28T08:33:36;32.13;;;12.30;;
54197;SDS011;40105;52.366;17.000;2023-02-28T08:36:01;40.30;;;15.02;;
54197;SDS011;40105;52.366;17.000;2023-02-28T08:38:26;34.23;;;12.37;;
54197;SDS011;40105;52.366;17.000;2023-02-28T08:40:58;34.20;;;13.17;;
54197;SDS011;40105;52.366;17.000;2023-02-28T08:43:23;43.97;;;13.68;;
54197;SDS011;40105;52.366;17.000;2023-02-28T08:45:51;38.90;;;14.33;;
54197;SDS011;40105;52.366;17.000;2023-02-28T08:48:16;35.13;;;13.32;;
54197;SDS011;40105;52.366;17.000;2023-02-28T08:50:41;41.37;;;16.90;;
54197;SDS011;40105;52.366;17.000;2023-02-28T08:53:06;37.30;;;13.30;;
54197;SDS011;40105;52.366;17.000;2023-02-28T08:55:31;32.17;;;13.67;;
54197;SDS011;40105;52.366;17.000;2023-02-28T08:57:56;33.37;;;12.90;;
54197;SDS011;40105;52.366;17.000;2023-02-28T09:00:23;30.88;;;14.88;;
54197;SDS011;40105;52.366;17.000;2023-02-28T09:02:48;35.10;;;12.53;;
54197;SDS011;40105;52.366;17.000;2023-02-28T09:05:13;29.90;;;13.57;;
54197;SDS011;40105;52.366;17.000;2023-02-28T09:07:38;33.27;;;12.30;;
54197;SDS011;40105;52.366;17.000;2023-02-28T09:10:04;40.30;;;13.90;;
54197;SDS011;40105;52.366;17.000;2023-02-28T09:12:31;33.53;;;11.30;;
54197;SDS011;40105;52.366;17.000;2023-02-28T09:14:57;24.70;;;10.80;;
54197;SDS011;40105;52.366;17.000;2023-02-28T09:17:22;26.40;;;11.77;;
54197;SDS011;40105;52.366;17.000;2023-02-28T09:19:47;40.53;;;11.97;;
54197;SDS011;40105;52.366;17.000;2023-02-28T09:22:13;39.40;;;11.60;;
54197;SDS011;40105;52.366;17.000;2023-02-28T09:24:38;25.80;;;9.27;;
54197;SDS011;40105;52.366;17.000;2023-02-28T09:27:03;27.33;;;11.33;;
54197;SDS011;40105;52.366;17.000;2023-02-28T09:29:29;28.23;;;9.23;;
54197;SDS011;40105;52.366;17.000;2023-02-28T09:31:54;25.48;;;10.07;;
54197;SDS011;40105;52.366;17.000;2023-02-28T09:34:19;26.05;;;10.10;;
54197;SDS011;40105;52.366;17.000;2023-02-28T09:36:45;27.83;;;9.60;;
54197;SDS011;40105;52.366;17.000;2023-02-28T09:39:10;27.67;;;9.33;;
54197;SDS011;40105;52.366;17.000;2023-02-28T09:41:39;17.35;;;6.93;;
54197;SDS011;40105;52.366;17.000;2023-02-28T09:44:12;15.15;;;7.35;;
54197;SDS011;40105;52.366;17.000;2023-02-28T09:46:41;18.08;;;8.80;;
54197;SDS011;40105;52.366;17.000;2023-02-28T09:49:10;20.92;;;7.82;;
54197;SDS011;40105;52.366;17.000;2023-02-28T09:54:14;20.85;;;8.13;;
54197;SDS011;40105;52.366;17.000;2023-02-28T09:56:43;19.60;;;8.23;;
54197;SDS011;40105;52.366;17.000;2023-02-28T10:01:53;17.45;;;7.63;;
54197;SDS011;40105;52.366;17.000;2023-02-28T10:07:06;18.77;;;6.90;;
54197;SDS011;40105;52.366;17.000;2023-02-28T10:09:42;27.83;;;7.47;;
54197;SDS011;40105;52.366;17.000;2023-02-28T10:12:08;21.93;;;8.60;;
54197;SDS011;40105;52.366;17.000;2023-02-28T10:14:34;24.27;;;8.00;;
54197;SDS011;40105;52.366;17.000;2023-02-28T10:22:12;23.05;;;9.52;;
54197;SDS011;40105;52.366;17.000;2023-02-28T10:24:39;23.98;;;9.27;;
54197;SDS011;40105;52.366;17.000;2023-02-28T10:27:13;19.88;;;8.90;;
54197;SDS011;40105;52.366;17.000;2023-02-28T10:29:39;31.88;;;9.57;;
54197;SDS011;40105;52.366;17.000;2023-02-28T10:32:05;69.38;;;25.83;;
54197;SDS011;40105;52.366;17.000;2023-02-28T10:34:30;33.00;;;12.00;;
54197;SDS011;40105;52.366;17.000;2023-02-28T10:36:55;25.42;;;9.82;;
54197;SDS011;40105;52.366;17.000;2023-02-28T10:39:37;24.93;;;9.77;;
54197;SDS011;40105;52.366;17.000;2023-02-28T10:42:02;25.05;;;9.38;;
54197;SDS011;40105;52.366;17.000;2023-02-28T10:44:28;19.73;;;8.23;;
54197;SDS011;40105;52.366;17.000;2023-02-28T10:46:53;269.17;;;48.37;;
54197;SDS011;40105;52.366;17.000;2023-02-28T10:49:22;24.10;;;10.50;;
54197;SDS011;40105;52.366;17.000;2023-02-28T10:51:49;101.60;;;21.58;;
54197;SDS011;40105;52.366;17.000;2023-02-28T10:54:16;23.40;;;9.90;;
54197;SDS011;40105;52.366;17.000;2023-02-28T10:56:41;22.83;;;9.75;;
54197;SDS011;40105;52.366;17.000;2023-02-28T11:01:51;46.85;;;12.52;;
54197;SDS011;40105;52.366;17.000;2023-02-28T11:06:57;27.67;;;9.13;;
54197;SDS011;40105;52.366;17.000;2023-02-28T11:09:27;19.65;;;9.40;;
54197;SDS011;40105;52.366;17.000;2023-02-28T11:11:54;24.98;;;9.07;;
54197;SDS011;40105;52.366;17.000;2023-02-28T11:14:24;16.57;;;7.83;;
54197;SDS011;40105;52.366;17.000;2023-02-28T11:16:50;19.15;;;8.10;;
54197;SDS011;40105;52.366;17.000;2023-02-28T11:19:18;21.90;;;7.60;;
54197;SDS011;40105;52.366;17.000;2023-02-28T11:21:46;20.38;;;8.55;;
54197;SDS011;40105;52.366;17.000;2023-02-28T11:24:16;27.80;;;9.95;;
54197;SDS011;40105;52.366;17.000;2023-02-28T11:26:45;21.35;;;9.68;;
54197;SDS011;40105;52.366;17.000;2023-02-28T11:29:12;20.98;;;9.02;;
54197;SDS011;40105;52.366;17.000;2023-02-28T11:31:41;24.30;;;9.88;;
54197;SDS011;40105;52.366;17.000;2023-02-28T11:34:22;21.83;;;8.57;;
54197;SDS011;40105;52.366;17.000;2023-02-28T11:36:47;24.73;;;8.50;;
54197;SDS011;40105;52.366;17.000;2023-02-28T11:39:12;16.20;;;8.73;;
54197;SDS011;40105;52.366;17.000;2023-02-28T11:44:14;23.07;;;8.73;;
54197;SDS011;40105;52.366;17.000;2023-02-28T11:46:47;23.38;;;8.75;;
54197;SDS011;40105;52.366;17.000;2023-02-28T11:51:47;29.88;;;8.23;;
54197;SDS011;40105;52.366;17.000;2023-02-28T11:54:21;18.88;;;8.80;;
54197;SDS011;40105;52.366;17.000;2023-02-28T11:56:47;100.80;;;22.38;;
54197;SDS011;40105;52.366;17.000;2023-02-28T12:04:39;118.90;;;24.65;;
54197;SDS011;40105;52.366;17.000;2023-02-28T12:07:09;71.68;;;15.73;;
54197;SDS011;40105;52.366;17.000;2023-02-28T12:12:31;33.17;;;8.48;;
54197;SDS011;40105;52.366;17.000;2023-02-28T12:15:03;19.65;;;8.45;;
54197;SDS011;40105;52.366;17.000;2023-02-28T12:20:20;17.98;;;8.32;;
54197;SDS011;40105;52.366;17.000;2023-02-28T12:27:55;19.50;;;6.57;;
54197;SDS011;40105;52.366;17.000;2023-02-28T12:32:47;16.40;;;7.43;;
54197;SDS011;40105;52.366;17.000;2023-02-28T12:35:14;19.73;;;6.15;;
54197;SDS011;40105;52.366;17.000;2023-02-28T12:40:15;15.20;;;6.65;;
54197;SDS011;40105;52.366;17.000;2023-02-28T12:42:42;13.20;;;5.40;;
54197;SDS011;40105;52.366;17.000;2023-02-28T12:45:19;14.43;;;6.00;;
54197;SDS011;40105;52.366;17.000;2023-02-28T12:47:46;18.77;;;6.68;;
54197;SDS011;40105;52.366;17.000;2023-02-28T12:50:13;13.95;;;7.32;;
54197;SDS011;40105;52.366;17.000;2023-02-28T12:52:47;30.17;;;7.32;;
54197;SDS011;40105;52.366;17.000;2023-02-28T12:55:17;9.35;;;4.60;;
54197;SDS011;40105;52.366;17.000;2023-02-28T13:10:07;11.07;;;5.07;;
54197;SDS011;40105;52.366;17.000;2023-02-28T13:12:33;16.88;;;7.55;;
54197;SDS011;40105;52.366;17.000;2023-02-28T13:15:07;17.48;;;6.20;;
54197;SDS011;40105;52.366;17.000;2023-02-28T13:17:37;15.02;;;5.82;;
54197;SDS011;40105;52.366;17.000;2023-02-28T13:20:03;13.68;;;5.82;;
54197;SDS011;40105;52.366;17.000;2023-02-28T13:25:00;15.50;;;6.63;;
54197;SDS011;40105;52.366;17.000;2023-02-28T13:27:38;48.87;;;8.80;;
54197;SDS011;40105;52.366;17.000;2023-02-28T13:33:00;20.60;;;6.90;;
54197;SDS011;40105;52.366;17.000;2023-02-28T13:35:35;15.40;;;5.68;;
54197;SDS011;40105;52.366;17.000;2023-02-28T13:38:09;29.38;;;7.75;;
54197;SDS011;40105;52.366;17.000;2023-02-28T13:40:34;25.50;;;7.45;;
54197;SDS011;40105;52.366;17.000;2023-02-28T13:43:02;19.17;;;6.88;;
54197;SDS011;40105;52.366;17.000;2023-02-28T13:45:29;18.13;;;6.47;;
54197;SDS011;40105;52.366;17.000;2023-02-28T13:48:02;21.35;;;7.28;;
54197;SDS011;40105;52.366;17.000;2023-02-28T13:50:34;16.45;;;6.63;;
54197;SDS011;40105;52.366;17.000;2023-02-28T13:58:17;22.30;;;7.00;;
54197;SDS011;40105;52.366;17.000;2023-02-28T14:06:31;21.55;;;7.72;;
54197;SDS011;40105;52.366;17.000;2023-02-28T14:09:06;26.55;;;5.13;;
54197;SDS011;40105;52.366;17.000;2023-02-28T14:11:42;17.13;;;5.78;;
54197;SDS011;40105;52.366;17.000;2023-02-28T14:14:09;13.15;;;5.88;;
54197;SDS011;40105;52.366;17.000;2023-02-28T14:19:21;18.70;;;6.75;;
54197;SDS011;40105;52.366;17.000;2023-02-28T14:21:50;13.55;;;5.88;;
54197;SDS011;40105;52.366;17.000;2023-02-28T14:29:36;12.90;;;5.50;;
54197;SDS011;40105;52.366;17.000;2023-02-28T14:33:11;14.85;;;5.97;;
54197;SDS011;40105;52.366;17.000;2023-02-28T14:35:12;15.80;;;5.25;;
54197;SDS011;40105;52.366;17.000;2023-02-28T14:37:42;11.60;;;4.95;;
54197;SDS011;40105;52.366;17.000;2023-02-28T14:40:17;14.75;;;5.95;;
54197;SDS011;40105;52.366;17.000;2023-02-28T14:42:49;22.27;;;7.97;;
54197;SDS011;40105;52.366;17.000;2023-02-28T14:45:19;21.05;;;7.43;;
54197;SDS011;40105;52.366;17.000;2023-02-28T14:47:45;23.45;;;8.48;;
54197;SDS011;40105;52.366;17.000;2023-02-28T14:50:17;20.53;;;7.47;;
54197;SDS011;40105;52.366;17.000;2023-02-28T14:52:42;18.80;;;7.10;;
54197;SDS011;40105;52.366;17.000;2023-02-28T14:55:15;22.15;;;7.05;;
54197;SDS011;40105;52.366;17.000;2023-02-28T14:57:50;19.42;;;7.82;;
54197;SDS011;40105;52.366;17.000;2023-02-28T15:02:41;21.27;;;7.80;;
54197;SDS011;40105;52.366;17.000;2023-02-28T15:07:34;18.55;;;6.18;;
54197;SDS011;40105;52.366;17.000;2023-02-28T15:12:34;15.05;;;5.50;;
54197;SDS011;40105;52.366;17.000;2023-02-28T15:14:59;14.93;;;7.22;;
54197;SDS011;40105;52.366;17.000;2023-02-28T15:17:25;18.48;;;7.50;;
54197;SDS011;40105;52.366;17.000;2023-02-28T15:19:51;18.63;;;6.23;;
54197;SDS011;40105;52.366;17.000;2023-02-28T15:22:26;34.50;;;7.75;;
54197;SDS011;40105;52.366;17.000;2023-02-28T15:24:53;18.52;;;6.30;;
54197;SDS011;40105;52.366;17.000;2023-02-28T15:27:23;17.33;;;6.72;;
54197;SDS011;40105;52.366;17.000;2023-02-28T15:29:49;30.63;;;8.38;;
54197;SDS011;40105;52.366;17.000;2023-02-28T15:34:50;23.17;;;7.82;;
54197;SDS011;40105;52.366;17.000;2023-02-28T15:37:38;19.37;;;6.57;;
54197;SDS011;40105;52.366;17.000;2023-02-28T15:40:23;26.38;;;7.00;;
54197;SDS011;40105;52.366;17.000;2023-02-28T15:45:27;32.05;;;9.25;;
54197;SDS011;40105;52.366;17.000;2023-02-28T15:47:52;35.97;;;8.45;;
54197;SDS011;40105;52.366;17.000;2023-02-28T15:50:17;18.30;;;5.53;;
54197;SDS011;40105;52.366;17.000;2023-02-28T15:52:44;25.27;;;5.85;;
54197;SDS011;40105;52.366;17.000;2023-02-28T15:57:35;21.17;;;5.72;;
54197;SDS011;40105;52.366;17.000;2023-02-28T16:00:01;24.98;;;7.10;;
54197;SDS011;40105;52.366;17.000;2023-02-28T16:02:33;20.35;;;7.70;;
54197;SDS011;40105;52.366;17.000;2023-02-28T16:07:27;20.42;;;7.90;;
54197;SDS011;40105;52.366;17.000;2023-02-28T16:09:53;21.15;;;8.43;;
54197;SDS011;40105;52.366;17.000;2023-02-28T16:12:18;24.90;;;6.90;;
54197;SDS011;40105;52.366;17.000;2023-02-28T16:14:44;17.65;;;7.93;;
54197;SDS011;40105;52.366;17.000;2023-02-28T16:17:23;23.58;;;9.45;;
54197;SDS011;40105;52.366;17.000;2023-02-28T16:19:49;29.30;;;9.50;;
54197;SDS011;40105;52.366;17.000;2023-02-28T16:22:14;25.17;;;9.57;;
54197;SDS011;40105;52.366;17.000;2023-02-28T16:24:39;22.87;;;8.70;;
54197;SDS011;40105;52.366;17.000;2023-02-28T16:27:05;30.55;;;10.18;;
54197;SDS011;40105;52.366;17.000;2023-02-28T16:29:31;44.53;;;13.65;;